Time;durP1;ratioP1;P1;durP2;ratioP2;P2;SDS_P1;SDS_P2;PMS_P1;PMS_P2;Temp;Humidity;BMP_temperature;BMP_pressure;BME280_temperature;BME280_humidity;BME280_pressure;Samples;Min_cycle;Max_cycle;Signal;HPM_P1;HPM_P2
2022/09/16 00:00:42;;;;;;;2.53;1.20;;;15.90;99.90;;;;;;5014521;28;20624;-76
2022/09/16 00:03:09;;;;;;;5.87;1.17;;;15.90;99.90;;;;;;5013515;28;20442;-76
2022/09/16 00:05:49;;;;;;;2.33;0.60;;;15.90;99.90;;;;;;5029809;28;20934;-75
2022/09/16 00:08:16;;;;;;;1.70;0.67;;;15.80;99.90;;;;;;5013371;28;20627;-75
2022/09/16 00:10:42;;;;;;;2.70;0.70;;;15.80;99.90;;;;;;5014382;28;20616;-75
2022/09/16 00:13:09;;;;;;;7.37;1.00;;;15.80;99.90;;;;;;5014350;28;20577;-75
2022/09/16 00:15:35;;;;;;;2.53;0.70;;;15.80;99.90;;;;;;5014318;28;21412;-76
2022/09/16 00:18:01;;;;;;;3.10;1.00;;;15.80;99.90;;;;;;5014381;28;20616;-76
2022/09/16 00:20:27;;;;;;;2.13;0.80;;;15.70;99.90;;;;;;5014023;28;20565;-76
2022/09/16 00:22:53;;;;;;;3.20;0.80;;;15.70;99.90;;;;;;5013468;28;20177;-77
2022/09/16 00:25:19;;;;;;;1.93;0.73;;;15.70;99.90;;;;;;5014285;28;20204;-76
2022/09/16 00:27:50;;;;;;;4.43;0.80;;;15.60;99.90;;;;;;5012772;28;21202;-76
2022/09/16 00:30:16;;;;;;;3.30;0.77;;;15.60;99.90;;;;;;5013803;28;20170;-77
2022/09/16 00:32:43;;;;;;;2.80;0.97;;;15.60;99.90;;;;;;5012634;28;21207;-76
2022/09/16 00:35:09;;;;;;;1.50;0.60;;;15.60;99.90;;;;;;5013909;28;20624;-76
2022/09/16 00:37:35;;;;;;;2.40;0.63;;;15.70;99.90;;;;;;5013912;28;20581;-76
2022/09/16 00:40:00;;;;;;;2.20;0.80;;;15.60;99.90;;;;;;5013650;28;20233;-76
2022/09/16 00:42:26;;;;;;;2.27;0.50;;;15.60;99.90;;;;;;5012449;28;20174;-76
2022/09/16 00:45:12;;;;;;;2.33;0.70;;;15.60;99.90;;;;;;5013818;28;20607;-76
2022/09/16 00:47:44;;;;;;;4.77;0.70;;;15.60;99.90;;;;;;5013702;28;20170;-76
2022/09/16 00:50:24;;;;;;;2.20;0.53;;;15.60;99.90;;;;;;5013382;28;21286;-76
2022/09/16 00:52:52;;;;;;;1.50;0.70;;;15.60;99.90;;;;;;5013593;28;20565;-76
2022/09/16 00:55:23;;;;;;;5.90;0.80;;;15.60;99.90;;;;;;5013270;28;20617;-76
2022/09/16 00:57:50;;;;;;;2.57;0.80;;;15.60;99.90;;;;;;5013547;28;20561;-76
2022/09/16 01:00:16;;;;;;;2.03;0.70;;;15.60;99.90;;;;;;5013197;28;20557;-76
2022/09/16 01:02:44;;;;;;;1.40;0.60;;;15.60;99.90;;;;;;5013432;28;21016;-76
2022/09/16 01:05:22;;;;;;;3.60;1.17;;;15.60;99.90;;;;;;5013454;28;20635;-77
2022/09/16 01:07:50;;;;;;;1.50;0.53;;;15.60;99.90;;;;;;5013441;28;20580;-76
2022/09/16 01:10:20;;;;;;;1.90;0.53;;;15.60;99.90;;;;;;5013152;28;20576;-76
2022/09/16 01:12:57;;;;;;;4.53;0.77;;;15.60;99.90;;;;;;5011901;28;20943;-76
2022/09/16 01:15:54;;;;;;;4.70;2.40;;;15.60;99.90;;;;;;5023384;28;20652;-78
2022/09/16 01:18:26;;;;;;;2.00;0.73;;;15.60;99.90;;;;;;5004023;28;20759;-78
2022/09/16 01:21:31;;;;;;;2.43;0.70;;;15.60;99.90;;;;;;5021466;28;20565;-77
2022/09/16 01:24:10;;;;;;;6.43;1.00;;;15.60;99.90;;;;;;5020921;28;20585;-78
2022/09/16 01:26:54;;;;;;;5.30;1.40;;;15.60;99.90;;;;;;5016496;28;20639;-77
2022/09/16 01:29:54;;;;;;;4.20;0.70;;;15.60;99.90;;;;;;5012758;28;20597;-77
2022/09/16 01:32:27;;;;;;;3.13;0.90;;;15.60;99.90;;;;;;5011507;28;20586;-77
2022/09/16 01:35:03;;;;;;;1.93;0.70;;;15.60;99.90;;;;;;5012031;28;20629;-77
2022/09/16 01:37:54;;;;;;;3.40;0.77;;;15.60;99.90;;;;;;5012875;28;20711;-77
2022/09/16 01:40:22;;;;;;;2.20;0.80;;;15.60;99.90;;;;;;5012602;28;20660;-77
2022/09/16 01:43:20;;;;;;;3.50;0.90;;;15.60;99.90;;;;;;5012649;28;20883;-78
2022/09/16 01:46:15;;;;;;;2.33;0.80;;;15.60;99.90;;;;;;5012605;28;20561;-78
2022/09/16 01:48:53;;;;;;;6.50;1.17;;;15.60;99.90;;;;;;5005624;28;20617;-77
2022/09/16 01:51:27;;;;;;;4.73;0.90;;;15.60;99.90;;;;;;5012201;28;20619;-77
2022/09/16 01:54:25;;;;;;;2.90;0.70;;;15.70;99.90;;;;;;5011305;28;20636;-77
2022/09/16 01:57:09;;;;;;;5.13;1.00;;;15.70;99.90;;;;;;5012769;28;20577;-77
2022/09/16 01:59:47;;;;;;;1.57;0.70;;;15.70;99.90;;;;;;5018653;28;20613;-77
2022/09/16 02:02:21;;;;;;;2.33;0.90;;;15.80;99.90;;;;;;5011369;28;20577;-77
2022/09/16 02:04:50;;;;;;;1.53;0.67;;;15.80;99.90;;;;;;5012615;28;20668;-77
2022/09/16 02:07:21;;;;;;;5.10;1.10;;;15.90;99.90;;;;;;5011123;28;20581;-78
2022/09/16 02:09:53;;;;;;;2.37;1.00;;;15.90;99.90;;;;;;5012123;28;20712;-77
2022/09/16 02:12:24;;;;;;;3.93;0.90;;;15.90;99.90;;;;;;5012648;28;20573;-77
2022/09/16 02:14:52;;;;;;;5.20;0.90;;;15.90;99.90;;;;;;5012536;28;21417;-77
2022/09/16 02:17:22;;;;;;;4.70;0.97;;;16.00;99.90;;;;;;5012287;28;20566;-74
2022/09/16 02:19:56;;;;;;;2.93;0.80;;;16.00;99.90;;;;;;5011680;28;20632;-74
2022/09/16 02:22:29;;;;;;;2.17;0.80;;;16.00;99.90;;;;;;5011949;28;20570;-74
2022/09/16 02:24:57;;;;;;;3.93;1.07;;;16.10;99.90;;;;;;5012094;28;20901;-74
2022/09/16 02:27:24;;;;;;;3.37;0.90;;;16.10;99.90;;;;;;5010633;28;20588;-73
2022/09/16 02:29:54;;;;;;;4.70;1.00;;;16.10;99.90;;;;;;5011718;28;20597;-74
2022/09/16 02:32:24;;;;;;;2.80;1.00;;;16.10;99.90;;;;;;5011883;28;20588;-73
2022/09/16 02:34:51;;;;;;;6.80;1.40;;;16.10;99.90;;;;;;5011866;28;20620;-74
2022/09/16 02:37:27;;;;;;;3.33;1.10;;;16.10;99.90;;;;;;5010697;28;20573;-73
2022/09/16 02:40:00;;;;;;;6.17;2.20;;;16.10;99.90;;;;;;5010483;28;20632;-74
2022/09/16 02:42:27;;;;;;;2.33;0.90;;;16.10;99.90;;;;;;5011830;28;20616;-74
2022/09/16 02:44:54;;;;;;;3.77;1.13;;;16.10;99.90;;;;;;5011753;28;20653;-74
2022/09/16 02:47:29;;;;;;;3.20;0.87;;;16.10;99.90;;;;;;5026831;28;21193;-73
2022/09/16 02:50:09;;;;;;;2.80;1.20;;;16.10;99.90;;;;;;5031057;28;20611;-74
2022/09/16 02:52:39;;;;;;;2.43;0.93;;;16.10;99.90;;;;;;5030195;28;20576;-73
2022/09/16 02:55:26;;;;;;;4.97;1.00;;;16.10;99.90;;;;;;5031162;28;20751;-73
2022/09/16 02:57:52;;;;;;;3.23;0.80;;;16.10;99.90;;;;;;5040350;28;20623;-74
2022/09/16 03:00:19;;;;;;;3.50;1.03;;;16.10;99.90;;;;;;5051185;28;20564;-74
2022/09/16 03:02:45;;;;;;;3.50;0.90;;;16.00;99.90;;;;;;5051161;28;20169;-74
2022/09/16 03:05:11;;;;;;;5.67;1.20;;;16.00;99.90;;;;;;5050162;28;20578;-74
2022/09/16 03:07:39;;;;;;;2.20;0.90;;;16.00;99.90;;;;;;5051002;28;20667;-74
2022/09/16 03:10:07;;;;;;;2.63;1.00;;;16.00;99.90;;;;;;5049807;28;21142;-73
2022/09/16 03:12:39;;;;;;;2.73;0.60;;;16.00;99.90;;;;;;5051287;28;20897;-74
2022/09/16 03:15:17;;;;;;;15.53;2.33;;;16.00;99.90;;;;;;5051383;28;20627;-77
2022/09/16 03:18:04;;;;;;;3.70;1.20;;;16.00;99.90;;;;;;5051035;28;20964;-77
2022/09/16 03:21:07;;;;;;;4.50;1.00;;;16.00;99.90;;;;;;5051117;28;20575;-77
2022/09/16 03:24:02;;;;;;;1.80;0.80;;;16.00;99.90;;;;;;5049932;28;21172;-77
2022/09/16 03:26:31;;;;;;;4.53;0.80;;;15.90;99.90;;;;;;5033347;28;21183;-77
2022/09/16 03:29:14;;;;;;;3.10;1.07;;;15.90;99.90;;;;;;5051338;28;20595;-77
2022/09/16 03:31:54;;;;;;;2.80;0.80;;;15.90;99.90;;;;;;5049696;28;20555;-77
2022/09/16 03:34:32;;;;;;;2.53;0.90;;;15.80;99.90;;;;;;5051428;28;20625;-76
2022/09/16 03:37:03;;;;;;;3.03;0.97;;;15.80;99.90;;;;;;5049924;28;20932;-76
2022/09/16 03:39:30;;;;;;;5.10;1.00;;;15.80;99.90;;;;;;5051566;28;20603;-77
2022/09/16 03:42:04;;;;;;;4.33;0.90;;;15.80;99.90;;;;;;5050959;28;20939;-77
2022/09/16 03:44:32;;;;;;;2.70;1.00;;;15.80;99.90;;;;;;5051107;28;20574;-77
2022/09/16 03:46:57;;;;;;;1.97;0.70;;;15.80;99.90;;;;;;5051092;28;20572;-77
2022/09/16 03:49:23;;;;;;;3.63;0.80;;;15.80;99.90;;;;;;5050572;28;21082;-77
2022/09/16 03:51:49;;;;;;;3.70;1.00;;;15.70;99.90;;;;;;5050828;28;20184;-77
2022/09/16 03:54:14;;;;;;;5.33;0.97;;;15.80;99.90;;;;;;5051336;28;20216;-77
2022/09/16 03:56:40;;;;;;;3.77;0.73;;;15.80;99.90;;;;;;5050963;28;20185;-77
2022/09/16 03:59:06;;;;;;;3.23;0.80;;;15.70;99.90;;;;;;5052348;28;20197;-77
2022/09/16 04:01:31;;;;;;;3.60;0.93;;;15.70;99.90;;;;;;5054080;28;20177;-77
2022/09/16 04:03:57;;;;;;;4.90;0.90;;;15.80;99.90;;;;;;5054471;28;20173;-77
2022/09/16 04:06:23;;;;;;;2.40;0.90;;;15.80;99.90;;;;;;5052999;28;20177;-77
2022/09/16 04:08:50;;;;;;;6.17;1.10;;;15.70;99.90;;;;;;5052800;28;20200;-77
2022/09/16 04:11:16;;;;;;;2.50;1.00;;;15.80;99.90;;;;;;5053837;28;20544;-77
2022/09/16 04:13:42;;;;;;;2.90;0.93;;;15.80;99.90;;;;;;5054170;28;20574;-77
2022/09/16 04:16:08;;;;;;;4.57;1.00;;;15.70;99.90;;;;;;5054069;28;20559;-77
2022/09/16 04:18:34;;;;;;;3.60;1.00;;;15.80;99.90;;;;;;5053900;28;20197;-77
2022/09/16 04:21:02;;;;;;;4.17;1.03;;;15.80;99.90;;;;;;5052442;28;20216;-77
2022/09/16 04:23:30;;;;;;;2.60;0.90;;;15.70;99.90;;;;;;5053867;28;20572;-77
2022/09/16 04:25:56;;;;;;;3.33;1.10;;;15.70;99.90;;;;;;5054744;28;20602;-78
2022/09/16 04:28:22;;;;;;;2.63;0.93;;;15.70;99.90;;;;;;5066921;28;20608;-77
2022/09/16 04:30:48;;;;;;;4.57;1.00;;;15.70;99.90;;;;;;5015782;28;20576;-76
2022/09/16 04:33:14;;;;;;;5.90;1.03;;;15.70;99.90;;;;;;5033856;28;20567;-78
2022/09/16 04:35:40;;;;;;;5.17;1.30;;;15.60;99.90;;;;;;5033937;28;20578;-77
2022/09/16 04:38:07;;;;;;;4.03;1.17;;;15.60;99.90;;;;;;5034098;28;20596;-77
2022/09/16 04:40:32;;;;;;;2.20;0.97;;;15.60;99.90;;;;;;5032654;28;20177;-77
2022/09/16 04:42:58;;;;;;;5.50;1.53;;;15.50;99.90;;;;;;5033902;28;20583;-78
2022/09/16 04:45:24;;;;;;;2.50;1.00;;;15.50;99.90;;;;;;5033931;28;20538;-78
2022/09/16 04:47:56;;;;;;;3.83;0.83;;;15.40;99.90;;;;;;5033574;28;20256;-74
2022/09/16 04:50:22;;;;;;;5.73;1.20;;;15.40;99.90;;;;;;5033348;28;20539;-74
2022/09/16 04:52:50;;;;;;;3.67;1.47;;;15.30;99.90;;;;;;5031925;28;20580;-74
2022/09/16 04:55:22;;;;;;;8.20;1.10;;;15.30;99.90;;;;;;5032138;28;20616;-73
2022/09/16 04:57:48;;;;;;;5.67;1.50;;;15.20;99.90;;;;;;5033244;28;20943;-73
2022/09/16 05:00:14;;;;;;;8.97;1.80;;;15.20;99.90;;;;;;5031872;28;20651;-74
2022/09/16 05:02:44;;;;;;;3.03;1.40;;;15.20;99.90;;;;;;5033110;28;20952;-73
2022/09/16 05:05:10;;;;;;;5.53;0.90;;;15.20;99.90;;;;;;5033237;28;20560;-73
2022/09/16 05:07:36;;;;;;;3.83;1.33;;;15.20;99.90;;;;;;5032907;28;20564;-73
2022/09/16 05:10:02;;;;;;;2.53;0.90;;;15.20;99.90;;;;;;5032744;28;20576;-73
2022/09/16 05:12:28;;;;;;;2.93;1.07;;;15.20;99.90;;;;;;5033130;28;20225;-74
2022/09/16 05:14:55;;;;;;;3.80;0.90;;;15.30;99.90;;;;;;5032775;28;20977;-73
2022/09/16 05:17:20;;;;;;;3.93;1.20;;;15.30;99.90;;;;;;5033014;28;20564;-73
2022/09/16 05:19:46;;;;;;;2.30;1.00;;;15.30;99.90;;;;;;5032368;28;20608;-73
2022/09/16 05:22:12;;;;;;;6.17;1.40;;;15.30;99.90;;;;;;5032670;28;20170;-72
2022/09/16 05:24:37;;;;;;;5.37;1.10;;;15.30;99.90;;;;;;5014919;28;20277;-73
2022/09/16 05:27:03;;;;;;;3.73;1.03;;;15.30;99.90;;;;;;5031806;28;20253;-73
2022/09/16 05:29:29;;;;;;;5.57;1.07;;;15.30;99.90;;;;;;5032554;28;20731;-73
2022/09/16 05:31:55;;;;;;;3.93;0.90;;;15.20;99.90;;;;;;5031190;28;20169;-73
2022/09/16 05:34:23;;;;;;;4.00;1.00;;;15.30;99.90;;;;;;5032724;28;20665;-73
2022/09/16 05:36:49;;;;;;;4.53;1.03;;;15.30;99.90;;;;;;5036043;28;20612;-72
2022/09/16 05:39:19;;;;;;;4.63;1.20;;;15.40;99.90;;;;;;5043282;28;20611;-73
2022/09/16 05:41:46;;;;;;;3.07;1.13;;;15.50;99.90;;;;;;5038791;28;20595;-74
2022/09/16 05:44:12;;;;;;;2.97;1.20;;;15.50;99.90;;;;;;5049038;28;20630;-73
2022/09/16 05:46:42;;;;;;;8.73;1.10;;;15.60;99.90;;;;;;5043788;28;20690;-73
2022/09/16 05:49:08;;;;;;;4.00;1.20;;;15.70;99.90;;;;;;5037339;28;20722;-73
2022/09/16 05:51:36;;;;;;;3.80;1.40;;;15.80;99.90;;;;;;5043448;28;21191;-73
2022/09/16 05:54:02;;;;;;;4.23;1.13;;;15.80;99.90;;;;;;5038407;28;20624;-74
2022/09/16 05:56:30;;;;;;;4.73;1.27;;;15.90;99.90;;;;;;5034961;28;20581;-73
2022/09/16 05:58:58;;;;;;;2.73;0.80;;;15.90;99.90;;;;;;5038631;28;20198;-74
2022/09/16 06:01:27;;;;;;;3.50;0.70;;;16.00;99.90;;;;;;5033407;28;21177;-73
2022/09/16 06:03:56;;;;;;;3.50;0.77;;;16.00;99.90;;;;;;5040389;28;21116;-73
2022/09/16 06:06:22;;;;;;;4.87;0.93;;;16.00;99.90;;;;;;5051929;28;21179;-73
2022/09/16 06:08:48;;;;;;;2.90;0.80;;;16.00;99.90;;;;;;5042076;28;20695;-73
2022/09/16 06:11:14;;;;;;;3.63;0.90;;;16.00;99.90;;;;;;5024828;28;20202;-73
2022/09/16 06:13:40;;;;;;;3.97;1.00;;;16.10;99.90;;;;;;5031643;28;20592;-74
2022/09/16 06:16:07;;;;;;;2.43;1.00;;;16.10;99.90;;;;;;5031809;28;20634;-73
2022/09/16 06:18:33;;;;;;;2.93;0.93;;;16.20;99.90;;;;;;5031512;28;20632;-73
2022/09/16 06:21:06;;;;;;;2.93;0.90;;;16.20;99.90;;;;;;5030954;28;20564;-73
2022/09/16 06:23:32;;;;;;;3.93;0.90;;;16.30;99.90;;;;;;5028716;28;20588;-73
2022/09/16 06:26:06;;;;;;;3.30;1.20;;;16.40;99.90;;;;;;5031235;28;21159;-73
2022/09/16 06:28:32;;;;;;;3.57;0.90;;;16.50;99.90;;;;;;5029153;28;20665;-73
2022/09/16 06:31:07;;;;;;;5.20;1.07;;;16.60;99.90;;;;;;5031237;28;20569;-73
2022/09/16 06:33:34;;;;;;;4.70;0.90;;;16.70;99.90;;;;;;5019649;28;21146;-74
2022/09/16 06:36:08;;;;;;;3.73;0.70;;;16.70;99.90;;;;;;5031168;28;20639;-73
2022/09/16 06:38:35;;;;;;;1.87;0.80;;;16.80;99.90;;;;;;5031420;28;20644;-74
2022/09/16 06:41:04;;;;;;;4.50;1.00;;;16.80;99.90;;;;;;5031368;28;20596;-73
2022/09/16 06:43:30;;;;;;;2.13;0.70;;;16.80;99.90;;;;;;5014143;28;20619;-73
2022/09/16 06:46:01;;;;;;;3.37;1.13;;;17.00;99.90;;;;;;5030407;28;21140;-74
2022/09/16 06:48:28;;;;;;;5.03;0.80;;;17.00;99.90;;;;;;5031583;28;20600;-73
2022/09/16 06:51:02;;;;;;;5.77;0.83;;;17.10;99.90;;;;;;5029963;28;20568;-73
2022/09/16 06:53:28;;;;;;;3.67;1.07;;;17.20;99.90;;;;;;5031539;28;20572;-73
2022/09/16 06:55:58;;;;;;;4.43;1.10;;;17.30;99.90;;;;;;5031580;28;21023;-73
2022/09/16 06:58:24;;;;;;;6.73;0.93;;;17.30;99.90;;;;;;5031547;28;20654;-74
2022/09/16 07:00:50;;;;;;;3.87;0.73;;;17.40;99.90;;;;;;5031105;28;20565;-74
2022/09/16 07:03:16;;;;;;;1.50;0.70;;;17.50;99.90;;;;;;5031848;28;20162;-73
2022/09/16 07:05:42;;;;;;;4.90;0.80;;;17.60;99.90;;;;;;5031443;28;20174;-73
2022/09/16 07:08:08;;;;;;;2.53;0.60;;;17.60;99.90;;;;;;5031459;28;20715;-73
2022/09/16 07:10:33;;;;;;;2.90;0.90;;;17.70;99.90;;;;;;5031644;28;21119;-74
2022/09/16 07:12:59;;;;;;;2.73;0.73;;;17.70;99.90;;;;;;5031395;28;20174;-73
2022/09/16 07:15:25;;;;;;;4.70;1.27;;;17.70;99.90;;;;;;5031416;28;20189;-73
2022/09/16 07:17:54;;;;;;;2.60;0.70;;;17.80;99.90;;;;;;5031082;28;20166;-73
2022/09/16 07:20:20;;;;;;;2.70;0.80;;;17.80;99.90;;;;;;5030028;28;20212;-73
2022/09/16 07:22:49;;;;;;;2.57;0.80;;;17.90;99.90;;;;;;5030100;28;20600;-73
2022/09/16 07:25:15;;;;;;;1.87;0.70;;;18.00;99.90;;;;;;5023659;28;20654;-73
2022/09/16 07:27:42;;;;;;;4.30;0.70;;;18.20;99.90;;;;;;5030679;28;20946;-73
2022/09/16 07:30:08;;;;;;;4.40;0.87;;;18.50;99.90;;;;;;5027493;28;20592;-73
2022/09/16 07:32:34;;;;;;;3.73;0.97;;;19.00;99.90;;;;;;5030918;28;20220;-71
2022/09/16 07:34:59;;;;;;;9.40;1.23;;;19.20;99.90;;;;;;5032219;28;20684;-72
2022/09/16 07:37:25;;;;;;;2.27;0.73;;;19.40;99.90;;;;;;5031468;28;20174;-72
2022/09/16 07:39:51;;;;;;;2.50;0.70;;;19.50;99.90;;;;;;5034024;28;20247;-72
2022/09/16 07:42:16;;;;;;;5.20;0.70;;;19.60;99.90;;;;;;5033772;28;20940;-72
2022/09/16 07:44:43;;;;;;;4.73;0.70;;;19.60;99.90;;;;;;5020888;28;20197;-72
2022/09/16 07:47:09;;;;;;;3.67;1.10;;;19.60;99.90;;;;;;5017304;28;20561;-71
2022/09/16 07:49:34;;;;;;;4.37;1.50;;;19.60;99.90;;;;;;5016012;28;20206;-74
2022/09/16 07:52:00;;;;;;;3.07;0.80;;;19.60;99.90;;;;;;5021887;28;20542;-74
2022/09/16 07:54:26;;;;;;;3.57;0.80;;;19.80;99.90;;;;;;5031477;28;20212;-74
2022/09/16 07:56:52;;;;;;;2.27;0.60;;;19.80;99.90;;;;;;5014943;28;20576;-73
2022/09/16 07:59:18;;;;;;;3.83;1.00;;;19.90;99.90;;;;;;5032774;28;20265;-75
2022/09/16 08:01:45;;;;;;;2.73;0.63;;;20.00;99.90;;;;;;5033426;28;20177;-74
2022/09/16 08:04:11;;;;;;;2.87;1.57;;;20.10;99.90;;;;;;5015498;28;20936;-74
2022/09/16 08:06:38;;;;;;;4.50;0.80;;;20.10;99.90;;;;;;5033421;28;20564;-74
2022/09/16 08:09:04;;;;;;;2.73;0.73;;;20.00;99.90;;;;;;5033452;28;20193;-74
2022/09/16 08:11:30;;;;;;;1.77;0.70;;;20.00;99.90;;;;;;5032540;28;20583;-75
2022/09/16 08:13:59;;;;;;;2.67;1.10;;;19.90;99.90;;;;;;5034078;28;20174;-74
2022/09/16 08:16:25;;;;;;;3.47;0.90;;;19.80;99.90;;;;;;5033962;28;20575;-74
2022/09/16 08:18:54;;;;;;;3.83;0.83;;;19.70;99.90;;;;;;5031340;28;20639;-74
2022/09/16 08:21:23;;;;;;;3.50;0.80;;;19.70;99.90;;;;;;5030155;28;20691;-74
2022/09/16 08:23:49;;;;;;;4.37;0.80;;;19.80;99.90;;;;;;5032773;28;20572;-74
2022/09/16 08:26:18;;;;;;;1.90;0.70;;;19.80;99.90;;;;;;5034015;28;21135;-74
2022/09/16 08:28:45;;;;;;;3.40;0.80;;;20.00;99.90;;;;;;5033910;28;20588;-74
2022/09/16 08:31:11;;;;;;;2.97;0.80;;;20.20;99.90;;;;;;5032389;28;20986;-74
2022/09/16 08:33:40;;;;;;;4.80;0.80;;;20.40;99.90;;;;;;5032695;28;21206;-74
2022/09/16 08:36:20;;;;;;;3.20;0.70;;;20.60;99.90;;;;;;5033676;28;20624;-74
2022/09/16 08:38:48;;;;;;;2.33;1.20;;;20.80;99.90;;;;;;5033813;28;20592;-74
2022/09/16 08:41:35;;;;;;;2.43;0.80;;;20.90;99.90;;;;;;5032238;28;20572;-75
2022/09/16 08:44:09;;;;;;;3.17;0.77;;;21.10;99.90;;;;;;5033142;28;20922;-74
2022/09/16 08:46:43;;;;;;;2.30;0.90;;;21.50;99.90;;;;;;5033799;28;20639;-75
2022/09/16 08:49:47;;;;;;;1.97;0.70;;;22.10;99.90;;;;;;5032297;28;20618;-75
2022/09/16 08:52:35;;;;;;;2.77;0.77;;;22.90;99.90;;;;;;5033419;28;20576;-76
2022/09/16 08:55:11;;;;;;;2.13;0.70;;;23.60;99.90;;;;;;5032271;28;20624;-75
2022/09/16 08:57:52;;;;;;;1.50;0.63;;;24.00;99.90;;;;;;5033370;28;20603;-75
2022/09/16 09:00:18;;;;;;;3.20;0.80;;;24.20;99.90;;;;;;5033135;28;21150;-74
2022/09/16 09:02:54;;;;;;;2.63;0.60;;;24.30;99.90;;;;;;5033262;28;20656;-74
2022/09/16 09:05:44;;;;;;;1.97;0.80;;;24.30;99.90;;;;;;5033268;28;20572;-75
2022/09/16 09:08:19;;;;;;;7.23;1.00;;;24.50;99.90;;;;;;5033068;28;20637;-73
2022/09/16 09:10:52;;;;;;;2.40;0.60;;;24.90;99.90;;;;;;5032864;28;20671;-74
2022/09/16 09:13:32;;;;;;;3.97;1.07;;;25.50;99.90;;;;;;5032940;28;20581;-74
2022/09/16 09:16:26;;;;;;;4.20;0.50;;;26.40;99.90;;;;;;5033107;28;20651;-75
2022/09/16 09:19:08;;;;;;;2.57;0.70;;;27.10;99.90;;;;;;5031527;28;21012;-75
2022/09/16 09:21:43;;;;;;;3.50;1.00;;;27.90;99.80;;;;;;5032499;28;20560;-74
2022/09/16 09:24:25;;;;;;;1.67;0.60;;;28.10;97.60;;;;;;5032893;28;20605;-75
2022/09/16 09:27:13;;;;;;;2.57;0.90;;;27.90;95.40;;;;;;5032961;28;20578;-75
2022/09/16 09:30:01;;;;;;;2.57;0.90;;;27.70;93.70;;;;;;5032477;28;20615;-75
2022/09/16 09:32:48;;;;;;;1.70;0.87;;;27.40;92.40;;;;;;5031365;28;20582;-74
2022/09/16 09:35:52;;;;;;;3.13;0.60;;;27.20;91.70;;;;;;5032455;28;20652;-74
2022/09/16 09:38:35;;;;;;;2.43;0.60;;;26.70;90.90;;;;;;5032636;28;21007;-74
2022/09/16 09:41:25;;;;;;;3.80;0.50;;;26.20;90.40;;;;;;5032571;28;20561;-74
2022/09/16 09:43:57;;;;;;;6.10;1.37;;;25.70;90.50;;;;;;5031802;28;20921;-74
2022/09/16 09:46:29;;;;;;;3.37;1.40;;;25.20;88.70;;;;;;5031188;28;20611;-74
2022/09/16 09:49:10;;;;;;;2.50;1.43;;;24.70;88.30;;;;;;5032431;28;20608;-74
2022/09/16 09:51:55;;;;;;;2.00;0.80;;;24.30;90.00;;;;;;5032214;28;20606;-74
2022/09/16 09:54:26;;;;;;;2.00;0.60;;;23.90;90.00;;;;;;5032417;28;20762;-74
2022/09/16 09:56:58;;;;;;;2.23;0.90;;;23.50;90.00;;;;;;5030190;28;20585;-74
2022/09/16 09:59:49;;;;;;;2.80;0.90;;;23.20;90.30;;;;;;5032050;28;20607;-74
2022/09/16 10:02:20;;;;;;;4.17;1.17;;;23.00;90.00;;;;;;5030985;28;20604;-75
2022/09/16 10:04:46;;;;;;;3.00;1.47;;;22.80;90.80;;;;;;5030969;28;20978;-74
2022/09/16 10:07:15;;;;;;;1.97;0.77;;;23.00;92.70;;;;;;5032303;28;20672;-74
2022/09/16 10:09:51;;;;;;;4.17;1.00;;;23.70;93.90;;;;;;5031903;28;20600;-74
2022/09/16 10:12:32;;;;;;;3.20;0.97;;;24.30;93.60;;;;;;5031551;28;20979;-74
2022/09/16 10:14:58;;;;;;;2.47;0.70;;;24.90;93.60;;;;;;5029773;28;21162;-74
2022/09/16 10:17:26;;;;;;;2.63;0.87;;;25.70;94.50;;;;;;5032748;28;20571;-75
2022/09/16 10:19:56;;;;;;;2.00;0.80;;;26.40;93.50;;;;;;5031126;28;20714;-75
2022/09/16 10:22:31;;;;;;;3.50;1.00;;;27.00;92.80;;;;;;5028155;28;20584;-74
2022/09/16 10:25:21;;;;;;;2.90;0.90;;;27.50;91.20;;;;;;5014600;28;20568;-74
2022/09/16 10:27:57;;;;;;;2.57;1.60;;;27.60;89.70;;;;;;5012049;28;20576;-74
2022/09/16 10:30:23;;;;;;;3.80;1.40;;;27.50;86.20;;;;;;5011979;28;20967;-74
2022/09/16 10:32:54;;;;;;;2.70;1.27;;;27.50;87.10;;;;;;5010783;28;20980;-74
2022/09/16 10:35:31;;;;;;;3.40;1.10;;;27.50;86.00;;;;;;5059191;23;20773;-76
2022/09/16 10:38:01;;;;;;;3.30;0.93;;;27.70;84.50;;;;;;5049298;28;20576;-75
2022/09/16 10:40:27;;;;;;;1.93;0.90;;;27.80;85.40;;;;;;5054601;28;20548;-76
2022/09/16 10:43:01;;;;;;;2.87;0.90;;;28.10;86.20;;;;;;5054064;28;20654;-75
2022/09/16 10:45:34;;;;;;;2.20;0.70;;;28.40;83.70;;;;;;5033263;28;20612;-76
2022/09/16 10:48:06;;;;;;;2.13;1.00;;;28.60;81.60;;;;;;5038701;28;20581;-76
2022/09/16 10:50:32;;;;;;;2.00;1.00;;;28.90;82.40;;;;;;5034465;28;20622;-75
2022/09/16 10:52:58;;;;;;;1.60;0.70;;;29.30;82.70;;;;;;5031905;28;20611;-76
2022/09/16 10:55:37;;;;;;;5.03;0.80;;;29.60;82.00;;;;;;5036343;28;20636;-76
2022/09/16 10:58:16;;;;;;;3.03;0.93;;;29.80;75.00;;;;;;5032359;28;20185;-76
2022/09/16 11:01:07;;;;;;;3.70;2.07;;;29.80;72.40;;;;;;5034071;28;20642;-76
2022/09/16 11:03:59;;;;;;;5.63;1.10;;;29.50;70.90;;;;;;5016115;28;20612;-77
2022/09/16 11:06:52;;;;;;;3.87;1.70;;;29.00;67.90;;;;;;5025878;28;20576;-77
2022/09/16 11:09:31;;;;;;;2.17;1.30;;;28.40;66.60;;;;;;5027770;28;20564;-77
2022/09/16 11:12:26;;;;;;;5.50;1.77;;;27.70;65.70;;;;;;5034024;28;21082;-78
2022/09/16 11:14:57;;;;;;;2.37;0.90;;;27.00;64.30;;;;;;5024420;28;20651;-78
2022/09/16 11:17:40;;;;;;;4.37;1.67;;;26.30;65.30;;;;;;5037010;28;20604;-77
2022/09/16 11:20:21;;;;;;;3.87;2.37;;;25.70;65.70;;;;;;5013483;28;21170;-77
2022/09/16 11:22:57;;;;;;;3.10;1.63;;;25.20;67.30;;;;;;5036001;28;20947;-77
2022/09/16 11:26:00;;;;;;;2.57;1.10;;;25.00;70.20;;;;;;5044674;28;20607;-77
2022/09/16 11:28:47;;;;;;;1.83;0.80;;;24.90;71.80;;;;;;5046378;28;20568;-77
2022/09/16 11:31:47;;;;;;;3.10;1.00;;;25.00;72.10;;;;;;5039302;28;20585;-78
2022/09/16 11:34:42;;;;;;;2.60;1.30;;;25.00;69.90;;;;;;5042792;28;20643;-77
2022/09/16 11:37:26;;;;;;;2.27;1.00;;;25.10;72.70;;;;;;5035957;28;20603;-77
2022/09/16 11:40:11;;;;;;;2.10;1.10;;;25.30;72.10;;;;;;5036078;28;20580;-75
2022/09/16 11:42:55;;;;;;;4.40;1.63;;;25.50;72.60;;;;;;5035861;28;20654;-75
2022/09/16 11:45:31;;;;;;;1.70;1.10;;;25.70;72.00;;;;;;5037936;28;20620;-75
2022/09/16 11:48:09;;;;;;;2.73;1.00;;;25.90;71.00;;;;;;5037994;28;20594;-76
2022/09/16 11:51:01;;;;;;;2.30;1.20;;;26.10;70.70;;;;;;5038338;28;20580;-76
2022/09/16 11:53:32;;;;;;;2.60;1.00;;;26.20;71.00;;;;;;5035962;28;20589;-78
2022/09/16 11:56:01;;;;;;;2.63;0.90;;;26.30;68.50;;;;;;5036903;28;20980;-76
2022/09/16 11:58:45;;;;;;;4.53;1.20;;;26.20;67.90;;;;;;5038779;28;20905;-76
2022/09/16 12:01:29;;;;;;;1.77;0.60;;;26.00;66.70;;;;;;5037032;28;20986;-75
2022/09/16 12:03:59;;;;;;;2.47;0.60;;;25.80;65.30;;;;;;5038157;28;20687;-76
2022/09/16 12:06:33;;;;;;;1.57;0.70;;;25.50;65.00;;;;;;5041725;28;21154;-76
2022/09/16 12:09:04;;;;;;;2.57;0.90;;;25.30;65.80;;;;;;5057683;28;20626;-76
2022/09/16 12:11:47;;;;;;;3.40;1.00;;;25.00;65.20;;;;;;5074842;28;20570;-77
2022/09/16 12:14:19;;;;;;;3.90;0.73;;;24.60;64.60;;;;;;5041786;28;20641;-78
2022/09/16 12:16:51;;;;;;;2.80;1.67;;;24.40;65.50;;;;;;5040492;28;20584;-77
2022/09/16 12:19:21;;;;;;;2.80;1.20;;;24.20;66.60;;;;;;5041566;28;20565;-77
2022/09/16 12:22:03;;;;;;;2.17;1.10;;;24.20;68.10;;;;;;5040793;28;20638;-77
2022/09/16 12:24:46;;;;;;;3.90;2.70;;;24.20;68.20;;;;;;5041555;28;20592;-77
2022/09/16 12:27:15;;;;;;;4.00;1.60;;;24.30;69.60;;;;;;5038946;28;20576;-77
2022/09/16 12:29:54;;;;;;;2.47;0.60;;;24.30;68.90;;;;;;5035740;28;20597;-77
2022/09/16 12:32:33;;;;;;;9.83;0.70;;;24.10;66.80;;;;;;5027218;28;20615;-77
2022/09/16 12:35:11;;;;;;;2.63;0.60;;;23.50;66.20;;;;;;5039059;28;21194;-76
2022/09/16 12:37:51;;;;;;;2.73;1.00;;;23.00;67.20;;;;;;5043535;28;20588;-76
2022/09/16 12:40:26;;;;;;;3.33;1.10;;;22.20;67.80;;;;;;5041883;28;21130;-77
2022/09/16 12:43:13;;;;;;;2.33;1.27;;;21.40;68.80;;;;;;5033049;28;20579;-77
2022/09/16 12:46:02;;;;;;;2.07;0.90;;;20.60;70.70;;;;;;5034316;28;20608;-76
2022/09/16 12:48:47;;;;;;;7.47;1.60;;;19.80;73.20;;;;;;5045892;28;20571;-77
2022/09/16 12:51:18;;;;;;;3.70;1.90;;;19.10;73.10;;;;;;5028143;28;20581;-75
2022/09/16 12:54:03;;;;;;;3.43;2.43;;;18.50;74.20;;;;;;5026542;28;21024;-75
2022/09/16 12:56:41;;;;;;;6.83;3.47;;;18.10;79.20;;;;;;5035858;28;20622;-76
2022/09/16 12:59:34;;;;;;;8.93;4.93;;;17.70;78.40;;;;;;5045441;28;20914;-76
2022/09/16 13:02:14;;;;;;;4.63;2.97;;;17.50;83.20;;;;;;5035763;28;20584;-76
2022/09/16 13:04:44;;;;;;;4.50;2.03;;;17.30;85.90;;;;;;5016518;28;20946;-75
2022/09/16 13:07:24;;;;;;;2.53;1.43;;;17.20;86.80;;;;;;5014060;28;21163;-75
2022/09/16 13:10:04;;;;;;;2.30;1.40;;;17.20;90.80;;;;;;5020430;28;20590;-75
2022/09/16 13:12:31;;;;;;;5.10;2.97;;;17.20;91.00;;;;;;5033189;28;20687;-74
2022/09/16 13:15:03;;;;;;;4.77;2.67;;;17.20;91.00;;;;;;5032972;28;20632;-74
2022/09/16 13:17:34;;;;;;;4.17;2.23;;;17.20;92.10;;;;;;5034935;28;20584;-76